sensor_id;sensor_type;location;lat;lon;timestamp;pressure;altitude;pressure_sealevel;temperature;humidity
59767;BME280;46248;58.364;25.582;2023-04-25T00:03:18;99707.91;;;11.17;75.64
59767;BME280;46248;58.364;25.582;2023-04-25T00:06:41;99716.06;;;11.12;75.35
59767;BME280;46248;58.364;25.582;2023-04-25T00:10:04;99711.22;;;11.06;75.40
59767;BME280;46248;58.364;25.582;2023-04-25T00:13:28;99710.06;;;10.97;75.59
59767;BME280;46248;58.364;25.582;2023-04-25T00:16:50;99713.06;;;10.91;74.99
59767;BME280;46248;58.364;25.582;2023-04-25T00:20:13;99710.09;;;10.83;75.97
59767;BME280;46248;58.364;25.582;2023-04-25T00:23:36;99694.16;;;10.73;76.43
59767;BME280;46248;58.364;25.582;2023-04-25T00:26:59;99710.38;;;10.66;77.05
59767;BME280;46248;58.364;25.582;2023-04-25T00:30:23;99702.19;;;10.58;77.29
59767;BME280;46248;58.364;25.582;2023-04-25T00:33:45;99698.28;;;10.50;77.19
59767;BME280;46248;58.364;25.582;2023-04-25T00:37:07;99697.81;;;10.44;77.25
59767;BME280;46248;58.364;25.582;2023-04-25T00:40:29;99707.63;;;10.40;76.81
59767;BME280;46248;58.364;25.582;2023-04-25T00:43:52;99698.41;;;10.35;76.88
59767;BME280;46248;58.364;25.582;2023-04-25T00:47:17;99700.47;;;10.29;77.29
59767;BME280;46248;58.364;25.582;2023-04-25T00:50:40;99697.38;;;10.23;77.03
59767;BME280;46248;58.364;25.582;2023-04-25T00:54:03;99708.13;;;10.18;76.88
59767;BME280;46248;58.364;25.582;2023-04-25T00:57:25;99705.81;;;10.14;76.42
59767;BME280;46248;58.364;25.582;2023-04-25T01:00:49;99705.06;;;10.12;76.58
59767;BME280;46248;58.364;25.582;2023-04-25T01:04:12;99703.47;;;10.09;77.29
59767;BME280;46248;58.364;25.582;2023-04-25T01:07:35;99707.22;;;10.05;76.95
59767;BME280;46248;58.364;25.582;2023-04-25T01:10:57;99705.72;;;10.01;76.49
59767;BME280;46248;58.364;25.582;2023-04-25T01:14:19;99707.69;;;9.97;76.64
59767;BME280;46248;58.364;25.582;2023-04-25T01:17:41;99711.31;;;9.95;76.22
59767;BME280;46248;58.364;25.582;2023-04-25T01:21:08;99703.66;;;9.92;75.83
59767;BME280;46248;58.364;25.582;2023-04-25T01:24:32;99699.00;;;9.82;76.31
59767;BME280;46248;58.364;25.582;2023-04-25T01:27:55;99702.56;;;9.81;76.76
59767;BME280;46248;58.364;25.582;2023-04-25T01:31:18;99705.44;;;9.77;76.51
59767;BME280;46248;58.364;25.582;2023-04-25T01:34:41;99697.97;;;9.71;76.93
59767;BME280;46248;58.364;25.582;2023-04-25T01:38:04;99700.78;;;9.68;77.00
59767;BME280;46248;58.364;25.582;2023-04-25T01:41:26;99701.91;;;9.63;77.04
59767;BME280;46248;58.364;25.582;2023-04-25T01:44:48;99690.22;;;9.55;76.53
59767;BME280;46248;58.364;25.582;2023-04-25T01:48:11;99693.66;;;9.55;76.12
59767;BME280;46248;58.364;25.582;2023-04-25T01:51:33;99695.56;;;9.53;76.71
59767;BME280;46248;58.364;25.582;2023-04-25T01:54:57;99691.44;;;9.49;76.28
59767;BME280;46248;58.364;25.582;2023-04-25T01:58:21;99685.53;;;9.46;75.98
59767;BME280;46248;58.364;25.582;2023-04-25T02:01:42;99694.03;;;9.49;75.83
59767;BME280;46248;58.364;25.582;2023-04-25T02:05:05;99694.97;;;9.48;75.23
59767;BME280;46248;58.364;25.582;2023-04-25T02:08:26;99698.53;;;9.47;75.25
59767;BME280;46248;58.364;25.582;2023-04-25T02:11:50;99686.38;;;9.46;75.21
59767;BME280;46248;58.364;25.582;2023-04-25T02:15:12;99691.53;;;9.48;75.46
59767;BME280;46248;58.364;25.582;2023-04-25T02:18:34;99684.53;;;9.48;75.14
59767;BME280;46248;58.364;25.582;2023-04-25T02:21:57;99682.09;;;9.45;74.72
59767;BME280;46248;58.364;25.582;2023-04-25T02:25:19;99678.34;;;9.49;74.62
59767;BME280;46248;58.364;25.582;2023-04-25T02:28:43;99677.44;;;9.50;73.79
59767;BME280;46248;58.364;25.582;2023-04-25T02:32:05;99675.03;;;9.47;73.10
59767;BME280;46248;58.364;25.582;2023-04-25T02:35:27;99677.44;;;9.50;71.74
59767;BME280;46248;58.364;25.582;2023-04-25T02:38:49;99679.94;;;9.52;71.94
59767;BME280;46248;58.364;25.582;2023-04-25T02:42:12;99669.69;;;9.49;71.62
59767;BME280;46248;58.364;25.582;2023-04-25T02:45:36;99666.31;;;9.47;70.73
59767;BME280;46248;58.364;25.582;2023-04-25T02:48:58;99675.19;;;9.44;70.77
59767;BME280;46248;58.364;25.582;2023-04-25T02:52:19;99665.94;;;9.38;70.36
59767;BME280;46248;58.364;25.582;2023-04-25T02:55:41;99674.34;;;9.44;69.86
59767;BME280;46248;58.364;25.582;2023-04-25T02:59:03;99674.44;;;9.42;69.25
59767;BME280;46248;58.364;25.582;2023-04-25T03:02:26;99671.72;;;9.44;69.08
59767;BME280;46248;58.364;25.582;2023-04-25T03:05:48;99659.59;;;9.43;69.14
59767;BME280;46248;58.364;25.582;2023-04-25T03:09:11;99667.38;;;9.44;69.73
59767;BME280;46248;58.364;25.582;2023-04-25T03:12:33;99669.97;;;9.44;70.00
59767;BME280;46248;58.364;25.582;2023-04-25T03:15:55;99665.66;;;9.43;69.65
59767;BME280;46248;58.364;25.582;2023-04-25T03:19:18;99668.09;;;9.46;69.58
59767;BME280;46248;58.364;25.582;2023-04-25T03:22:40;99663.63;;;9.48;69.89
59767;BME280;46248;58.364;25.582;2023-04-25T03:26:02;99665.22;;;9.51;69.66
59767;BME280;46248;58.364;25.582;2023-04-25T03:29:24;99665.94;;;9.53;68.99
59767;BME280;46248;58.364;25.582;2023-04-25T03:32:48;99665.69;;;9.57;69.43
59767;BME280;46248;58.364;25.582;2023-04-25T03:36:11;99669.06;;;9.59;68.90
59767;BME280;46248;58.364;25.582;2023-04-25T03:39:33;99664.53;;;9.61;69.27
59767;BME280;46248;58.364;25.582;2023-04-25T03:42:55;99659.88;;;9.67;68.55
59767;BME280;46248;58.364;25.582;2023-04-25T03:46:17;99656.97;;;9.71;68.19
59767;BME280;46248;58.364;25.582;2023-04-25T03:49:38;99656.63;;;9.77;68.78
59767;BME280;46248;58.364;25.582;2023-04-25T03:53:02;99662.41;;;9.82;68.52
59767;BME280;46248;58.364;25.582;2023-04-25T03:56:24;99660.34;;;9.88;67.71
59767;BME280;46248;58.364;25.582;2023-04-25T03:59:45;99663.41;;;9.94;67.27
59767;BME280;46248;58.364;25.582;2023-04-25T04:03:07;99666.41;;;10.02;66.50
59767;BME280;46248;58.364;25.582;2023-04-25T04:06:30;99674.63;;;10.11;66.30
59767;BME280;46248;58.364;25.582;2023-04-25T04:09:54;99667.09;;;10.19;65.65
59767;BME280;46248;58.364;25.582;2023-04-25T04:13:16;99659.66;;;10.27;66.01
59767;BME280;46248;58.364;25.582;2023-04-25T04:16:38;99652.16;;;10.35;65.56
59767;BME280;46248;58.364;25.582;2023-04-25T04:20:00;99658.19;;;10.50;65.22
59767;BME280;46248;58.364;25.582;2023-04-25T04:23:23;99654.84;;;10.61;65.12
59767;BME280;46248;58.364;25.582;2023-04-25T04:26:46;99647.44;;;10.67;64.61
59767;BME280;46248;58.364;25.582;2023-04-25T04:30:08;99656.81;;;10.84;64.20
59767;BME280;46248;58.364;25.582;2023-04-25T04:33:30;99653.38;;;10.96;63.97
59767;BME280;46248;58.364;25.582;2023-04-25T04:36:52;99649.72;;;11.12;64.23
59767;BME280;46248;58.364;25.582;2023-04-25T04:40:14;99646.91;;;11.40;63.44
59767;BME280;46248;58.364;25.582;2023-04-25T04:43:38;99648.44;;;11.81;62.46
59767;BME280;46248;58.364;25.582;2023-04-25T04:47:01;99656.38;;;12.18;61.47
59767;BME280;46248;58.364;25.582;2023-04-25T04:50:23;99649.34;;;12.43;60.94
59767;BME280;46248;58.364;25.582;2023-04-25T04:53:46;99647.44;;;12.69;60.68
59767;BME280;46248;58.364;25.582;2023-04-25T04:57:09;99638.56;;;12.94;59.58
59767;BME280;46248;58.364;25.582;2023-04-25T05:00:32;99645.84;;;13.25;59.17
59767;BME280;46248;58.364;25.582;2023-04-25T05:03:54;99648.13;;;13.64;58.30
59767;BME280;46248;58.364;25.582;2023-04-25T05:07:21;99657.22;;;14.05;56.82
59767;BME280;46248;58.364;25.582;2023-04-25T05:10:43;99650.81;;;14.41;55.93
59767;BME280;46248;58.364;25.582;2023-04-25T05:14:04;99655.50;;;14.70;55.22
59767;BME280;46248;58.364;25.582;2023-04-25T05:17:28;99654.25;;;15.06;54.44
59767;BME280;46248;58.364;25.582;2023-04-25T05:20:49;99649.03;;;15.37;53.33
59767;BME280;46248;58.364;25.582;2023-04-25T05:24:11;99652.16;;;15.51;50.91
59767;BME280;46248;58.364;25.582;2023-04-25T05:27:33;99651.78;;;15.56;51.97
59767;BME280;46248;58.364;25.582;2023-04-25T05:30:55;99648.06;;;15.58;51.51
59767;BME280;46248;58.364;25.582;2023-04-25T05:34:18;99651.72;;;15.67;50.63
59767;BME280;46248;58.364;25.582;2023-04-25T05:37:40;99651.91;;;15.75;49.31
59767;BME280;46248;58.364;25.582;2023-04-25T05:41:03;99656.06;;;15.78;50.33
59767;BME280;46248;58.364;25.582;2023-04-25T05:44:25;99657.88;;;15.77;47.88
59767;BME280;46248;58.364;25.582;2023-04-25T05:47:47;99643.34;;;15.62;49.09
59767;BME280;46248;58.364;25.582;2023-04-25T05:51:10;99657.09;;;15.66;47.75
59767;BME280;46248;58.364;25.582;2023-04-25T05:54:32;99656.38;;;15.64;49.42
59767;BME280;46248;58.364;25.582;2023-04-25T05:57:54;99653.75;;;15.64;49.37
59767;BME280;46248;58.364;25.582;2023-04-25T06:01:16;99645.72;;;15.65;48.92
59767;BME280;46248;58.364;25.582;2023-04-25T06:04:37;99643.19;;;15.64;49.44
59767;BME280;46248;58.364;25.582;2023-04-25T06:08:01;99657.09;;;15.66;49.18
59767;BME280;46248;58.364;25.582;2023-04-25T06:11:23;99642.78;;;15.58;48.64
59767;BME280;46248;58.364;25.582;2023-04-25T06:14:45;99650.81;;;15.57;49.07
59767;BME280;46248;58.364;25.582;2023-04-25T06:18:07;99650.53;;;15.60;49.40
59767;BME280;46248;58.364;25.582;2023-04-25T06:21:29;99664.31;;;15.64;48.67
59767;BME280;46248;58.364;25.582;2023-04-25T06:24:53;99663.75;;;15.60;48.27
59767;BME280;46248;58.364;25.582;2023-04-25T06:28:17;99664.00;;;15.57;48.55
59767;BME280;46248;58.364;25.582;2023-04-25T06:31:42;99673.41;;;15.50;48.72
59767;BME280;46248;58.364;25.582;2023-04-25T06:35:05;99670.03;;;15.38;48.52
59767;BME280;46248;58.364;25.582;2023-04-25T06:38:27;99672.19;;;15.33;48.54
59767;BME280;46248;58.364;25.582;2023-04-25T06:41:51;99674.78;;;15.23;49.11
59767;BME280;46248;58.364;25.582;2023-04-25T06:45:13;99680.31;;;15.20;48.75
59767;BME280;46248;58.364;25.582;2023-04-25T06:48:35;99669.63;;;15.22;48.83
59767;BME280;46248;58.364;25.582;2023-04-25T06:51:57;99662.56;;;15.22;48.94
59767;BME280;46248;58.364;25.582;2023-04-25T06:55:20;99665.72;;;15.37;48.82
59767;BME280;46248;58.364;25.582;2023-04-25T06:58:43;99667.16;;;15.51;48.54
59767;BME280;46248;58.364;25.582;2023-04-25T07:02:05;99662.97;;;15.69;48.72
59767;BME280;46248;58.364;25.582;2023-04-25T07:05:27;99647.88;;;15.81;48.34
59767;BME280;46248;58.364;25.582;2023-04-25T07:08:50;99656.88;;;16.09;48.22
59767;BME280;46248;58.364;25.582;2023-04-25T07:12:13;99655.94;;;16.30;47.71
59767;BME280;46248;58.364;25.582;2023-04-25T07:15:36;99661.97;;;16.70;47.33
59767;BME280;46248;58.364;25.582;2023-04-25T07:18:58;99660.84;;;17.12;46.97
59767;BME280;46248;58.364;25.582;2023-04-25T07:22:21;99672.63;;;17.47;46.37
59767;BME280;46248;58.364;25.582;2023-04-25T07:25:43;99673.28;;;17.68;45.95
59767;BME280;46248;58.364;25.582;2023-04-25T07:29:06;99665.13;;;17.89;45.76
59767;BME280;46248;58.364;25.582;2023-04-25T07:32:29;99663.22;;;18.09;45.28
59767;BME280;46248;58.364;25.582;2023-04-25T07:35:52;99667.00;;;18.06;44.58
59767;BME280;46248;58.364;25.582;2023-04-25T07:39:14;99667.31;;;17.94;44.27
59767;BME280;46248;58.364;25.582;2023-04-25T07:42:36;99665.25;;;17.88;44.88
59767;BME280;46248;58.364;25.582;2023-04-25T07:45:58;99664.66;;;18.03;45.14
59767;BME280;46248;58.364;25.582;2023-04-25T07:49:22;99667.13;;;18.33;44.58
59767;BME280;46248;58.364;25.582;2023-04-25T07:52:44;99666.31;;;18.68;44.28
59767;BME280;46248;58.364;25.582;2023-04-25T07:56:06;99667.16;;;19.04;42.91
59767;BME280;46248;58.364;25.582;2023-04-25T07:59:29;99654.22;;;19.27;41.55
59767;BME280;46248;58.364;25.582;2023-04-25T08:02:51;99663.00;;;19.45;41.66
59767;BME280;46248;58.364;25.582;2023-04-25T08:06:15;99659.91;;;19.58;41.70
59767;BME280;46248;58.364;25.582;2023-04-25T08:09:37;99651.06;;;19.50;41.36
59767;BME280;46248;58.364;25.582;2023-04-25T08:12:59;99661.78;;;19.40;40.57
59767;BME280;46248;58.364;25.582;2023-04-25T08:16:21;99661.22;;;19.28;40.88
59767;BME280;46248;58.364;25.582;2023-04-25T08:19:43;99670.06;;;19.37;40.82
59767;BME280;46248;58.364;25.582;2023-04-25T08:23:07;99672.59;;;19.73;39.49
59767;BME280;46248;58.364;25.582;2023-04-25T08:26:30;99665.47;;;20.07;38.53
59767;BME280;46248;58.364;25.582;2023-04-25T08:30:15;99661.19;;;20.23;39.01
59767;BME280;46248;58.364;25.582;2023-04-25T08:33:37;99674.16;;;20.26;39.24
59767;BME280;46248;58.364;25.582;2023-04-25T08:36:58;99663.38;;;20.27;39.26
59767;BME280;46248;58.364;25.582;2023-04-25T08:44:59;99657.91;;;20.29;37.80
59767;BME280;46248;58.364;25.582;2023-04-25T08:48:27;99654.94;;;20.40;36.73
59767;BME280;46248;58.364;25.582;2023-04-25T08:51:50;99666.44;;;20.49;37.51
59767;BME280;46248;58.364;25.582;2023-04-25T08:55:14;99647.34;;;20.53;36.02
59767;BME280;46248;58.364;25.582;2023-04-25T08:58:37;99650.69;;;20.55;35.43
59767;BME280;46248;58.364;25.582;2023-04-25T09:02:01;99647.34;;;20.53;35.96
59767;BME280;46248;58.364;25.582;2023-04-25T09:05:23;99654.31;;;20.54;36.65
59767;BME280;46248;58.364;25.582;2023-04-25T09:08:45;99647.84;;;20.57;36.41
59767;BME280;46248;58.364;25.582;2023-04-25T09:12:07;99647.84;;;20.65;36.14
59767;BME280;46248;58.364;25.582;2023-04-25T09:15:29;99640.38;;;20.77;36.03
59767;BME280;46248;58.364;25.582;2023-04-25T09:18:53;99635.91;;;20.86;35.13
59767;BME280;46248;58.364;25.582;2023-04-25T09:22:18;99635.38;;;20.90;32.93
59767;BME280;46248;58.364;25.582;2023-04-25T09:25:42;99643.06;;;20.85;32.52
59767;BME280;46248;58.364;25.582;2023-04-25T09:29:05;99642.88;;;20.87;33.00
59767;BME280;46248;58.364;25.582;2023-04-25T09:32:27;99642.72;;;20.88;33.81
59767;BME280;46248;58.364;25.582;2023-04-25T09:35:50;99651.69;;;20.71;33.60
59767;BME280;46248;58.364;25.582;2023-04-25T09:39:15;99652.44;;;20.47;33.68
59767;BME280;46248;58.364;25.582;2023-04-25T09:42:41;99653.91;;;20.33;33.94
59767;BME280;46248;58.364;25.582;2023-04-25T09:46:07;99644.97;;;20.34;34.49
59767;BME280;46248;58.364;25.582;2023-04-25T09:49:30;99649.44;;;20.42;34.26
59767;BME280;46248;58.364;25.582;2023-04-25T09:53:04;99651.28;;;20.41;31.92
59767;BME280;46248;58.364;25.582;2023-04-25T09:56:27;99650.09;;;20.35;33.25
59767;BME280;46248;58.364;25.582;2023-04-25T09:59:55;99659.56;;;20.30;33.09
59767;BME280;46248;58.364;25.582;2023-04-25T10:03:17;99660.19;;;20.16;32.00
59767;BME280;46248;58.364;25.582;2023-04-25T10:06:43;99659.78;;;20.02;31.53
59767;BME280;46248;58.364;25.582;2023-04-25T10:10:08;99656.59;;;19.90;33.76
59767;BME280;46248;58.364;25.582;2023-04-25T10:13:35;99658.09;;;19.93;33.73
59767;BME280;46248;58.364;25.582;2023-04-25T10:16:58;99648.31;;;19.94;34.01
59767;BME280;46248;58.364;25.582;2023-04-25T10:20:21;99662.59;;;19.93;33.17
59767;BME280;46248;58.364;25.582;2023-04-25T10:23:44;99667.59;;;19.96;34.09
59767;BME280;46248;58.364;25.582;2023-04-25T10:27:08;99661.13;;;19.98;32.87
59767;BME280;46248;58.364;25.582;2023-04-25T10:30:29;99660.63;;;19.95;31.27
59767;BME280;46248;58.364;25.582;2023-04-25T10:33:51;99671.56;;;19.92;33.80
59767;BME280;46248;58.364;25.582;2023-04-25T10:37:14;99656.59;;;19.90;33.60
59767;BME280;46248;58.364;25.582;2023-04-25T10:40:36;99665.25;;;19.93;33.13
59767;BME280;46248;58.364;25.582;2023-04-25T10:44:00;99663.47;;;20.01;33.18
59767;BME280;46248;58.364;25.582;2023-04-25T10:47:34;99664.16;;;20.11;30.00
59767;BME280;46248;58.364;25.582;2023-04-25T10:51:09;99659.88;;;20.19;29.45
59767;BME280;46248;58.364;25.582;2023-04-25T10:54:31;99667.34;;;20.23;32.28
59767;BME280;46248;58.364;25.582;2023-04-25T10:57:53;99665.03;;;20.28;32.63
59767;BME280;46248;58.364;25.582;2023-04-25T11:01:21;99666.56;;;20.31;30.58
59767;BME280;46248;58.364;25.582;2023-04-25T11:04:44;99674.16;;;20.26;32.07
59767;BME280;46248;58.364;25.582;2023-04-25T11:08:11;99668.16;;;20.16;31.61
59767;BME280;46248;58.364;25.582;2023-04-25T11:11:36;99673.25;;;20.01;32.05
59767;BME280;46248;58.364;25.582;2023-04-25T11:14:59;99677.84;;;19.90;32.36
59767;BME280;46248;58.364;25.582;2023-04-25T11:18:26;99676.88;;;19.92;32.29
59767;BME280;46248;58.364;25.582;2023-04-25T11:21:48;99671.72;;;19.90;31.61
59767;BME280;46248;58.364;25.582;2023-04-25T11:25:11;99668.78;;;20.01;31.39
59767;BME280;46248;58.364;25.582;2023-04-25T11:28:33;99663.19;;;20.21;31.40
59767;BME280;46248;58.364;25.582;2023-04-25T11:31:55;99663.09;;;20.47;29.12
59767;BME280;46248;58.364;25.582;2023-04-25T11:35:20;99667.31;;;20.57;29.49
59767;BME280;46248;58.364;25.582;2023-04-25T11:38:43;99654.34;;;20.71;29.92
59767;BME280;46248;58.364;25.582;2023-04-25T11:42:05;99641.88;;;20.79;27.24
59767;BME280;46248;58.364;25.582;2023-04-25T11:45:33;99661.84;;;20.67;29.50
59767;BME280;46248;58.364;25.582;2023-04-25T11:48:55;99661.16;;;20.65;29.54
59767;BME280;46248;58.364;25.582;2023-04-25T11:52:19;99663.00;;;20.65;30.16
59767;BME280;46248;58.364;25.582;2023-04-25T11:55:41;99653.66;;;20.69;29.35
59767;BME280;46248;58.364;25.582;2023-04-25T11:59:05;99645.69;;;20.69;29.72
59767;BME280;46248;58.364;25.582;2023-04-25T12:02:27;99646.53;;;20.69;29.95
59767;BME280;46248;58.364;25.582;2023-04-25T12:05:50;99641.88;;;20.71;29.77
59767;BME280;46248;58.364;25.582;2023-04-25T12:09:15;99637.72;;;20.69;29.07
59767;BME280;46248;58.364;25.582;2023-04-25T12:12:41;99641.38;;;20.68;29.93
59767;BME280;46248;58.364;25.582;2023-04-25T12:16:04;99636.56;;;20.71;30.27
59767;BME280;46248;58.364;25.582;2023-04-25T12:19:29;99620.91;;;20.85;27.86
59767;BME280;46248;58.364;25.582;2023-04-25T12:22:53;99631.22;;;20.96;29.66
59767;BME280;46248;58.364;25.582;2023-04-25T12:26:18;99621.41;;;21.04;28.99
59767;BME280;46248;58.364;25.582;2023-04-25T12:29:50;99617.59;;;20.99;27.01
59767;BME280;46248;58.364;25.582;2023-04-25T12:33:13;99615.59;;;21.01;28.97
59767;BME280;46248;58.364;25.582;2023-04-25T12:36:35;99616.44;;;21.01;28.82
59767;BME280;46248;58.364;25.582;2023-04-25T12:39:56;99614.59;;;21.02;29.44
59767;BME280;46248;58.364;25.582;2023-04-25T12:43:20;99614.44;;;20.95;28.96
59767;BME280;46248;58.364;25.582;2023-04-25T12:46:42;99615.28;;;20.71;29.16
59767;BME280;46248;58.364;25.582;2023-04-25T12:50:04;99619.59;;;20.56;29.79
59767;BME280;46248;58.364;25.582;2023-04-25T12:53:26;99615.88;;;20.41;29.92
59767;BME280;46248;58.364;25.582;2023-04-25T12:56:48;99625.00;;;20.30;29.87
59767;BME280;46248;58.364;25.582;2023-04-25T13:00:13;99619.31;;;20.17;29.30
59767;BME280;46248;58.364;25.582;2023-04-25T13:03:38;99620.44;;;20.06;30.50
59767;BME280;46248;58.364;25.582;2023-04-25T13:07:01;99626.78;;;20.13;30.40
59767;BME280;46248;58.364;25.582;2023-04-25T13:10:23;99617.66;;;20.24;29.99
59767;BME280;46248;58.364;25.582;2023-04-25T13:13:45;99610.06;;;20.37;30.16
59767;BME280;46248;58.364;25.582;2023-04-25T13:17:08;99620.59;;;20.55;29.37
59767;BME280;46248;58.364;25.582;2023-04-25T13:20:30;99612.44;;;20.65;29.92
59767;BME280;46248;58.364;25.582;2023-04-25T13:23:53;99604.78;;;20.78;30.11
59767;BME280;46248;58.364;25.582;2023-04-25T13:27:14;99605.94;;;20.75;29.94
59767;BME280;46248;58.364;25.582;2023-04-25T13:30:36;99594.31;;;20.85;28.77
59767;BME280;46248;58.364;25.582;2023-04-25T13:34:00;99587.69;;;20.89;28.06
59767;BME280;46248;58.364;25.582;2023-04-25T13:37:22;99594.50;;;20.83;29.37
59767;BME280;46248;58.364;25.582;2023-04-25T13:40:44;99587.53;;;20.82;29.94
59767;BME280;46248;58.364;25.582;2023-04-25T13:44:06;99594.31;;;20.85;29.75
59767;BME280;46248;58.364;25.582;2023-04-25T13:47:28;99597.97;;;20.75;30.39
59767;BME280;46248;58.364;25.582;2023-04-25T13:50:51;99585.84;;;20.65;30.69
59767;BME280;46248;58.364;25.582;2023-04-25T13:54:13;99580.16;;;20.51;30.12
59767;BME280;46248;58.364;25.582;2023-04-25T13:57:35;99587.81;;;20.46;30.23
59767;BME280;46248;58.364;25.582;2023-04-25T14:01:00;99585.47;;;20.43;30.29
59767;BME280;46248;58.364;25.582;2023-04-25T14:04:22;99593.28;;;20.36;30.08
59767;BME280;46248;58.364;25.582;2023-04-25T14:07:45;99588.13;;;20.35;30.99
59767;BME280;46248;58.364;25.582;2023-04-25T14:11:07;99590.75;;;20.27;30.46
59767;BME280;46248;58.364;25.582;2023-04-25T14:14:30;99591.25;;;20.14;30.71
59767;BME280;46248;58.364;25.582;2023-04-25T14:17:52;99585.25;;;20.12;30.81
59767;BME280;46248;58.364;25.582;2023-04-25T14:21:14;99582.91;;;20.09;31.25
59767;BME280;46248;58.364;25.582;2023-04-25T14:24:37;99581.09;;;20.01;30.62
59767;BME280;46248;58.364;25.582;2023-04-25T14:27:59;99582.75;;;19.94;30.92
59767;BME280;46248;58.364;25.582;2023-04-25T14:31:21;99580.09;;;19.94;31.48
59767;BME280;46248;58.364;25.582;2023-04-25T14:34:44;99578.25;;;19.95;31.45
59767;BME280;46248;58.364;25.582;2023-04-25T14:38:06;99574.59;;;19.96;31.16
59767;BME280;46248;58.364;25.582;2023-04-25T14:41:29;99560.47;;;19.95;30.26
59767;BME280;46248;58.364;25.582;2023-04-25T14:44:51;99569.13;;;19.97;30.57
59767;BME280;46248;58.364;25.582;2023-04-25T14:48:13;99571.25;;;19.85;31.07
59767;BME280;46248;58.364;25.582;2023-04-25T14:51:35;99569.34;;;19.70;31.87
59767;BME280;46248;58.364;25.582;2023-04-25T14:54:57;99579.56;;;19.56;32.18
59767;BME280;46248;58.364;25.582;2023-04-25T14:58:21;99573.31;;;19.31;32.25
59767;BME280;46248;58.364;25.582;2023-04-25T15:01:43;99571.72;;;19.12;32.44
59767;BME280;46248;58.364;25.582;2023-04-25T15:05:06;99568.81;;;18.97;32.90
59767;BME280;46248;58.364;25.582;2023-04-25T15:08:29;99576.22;;;18.94;33.36
59767;BME280;46248;58.364;25.582;2023-04-25T15:11:51;99579.19;;;18.91;33.35
59767;BME280;46248;58.364;25.582;2023-04-25T15:15:14;99562.22;;;18.84;33.80
59767;BME280;46248;58.364;25.582;2023-04-25T15:18:45;99563.13;;;18.92;33.39
59767;BME280;46248;58.364;25.582;2023-04-25T15:22:07;99569.25;;;18.93;33.72
59767;BME280;46248;58.364;25.582;2023-04-25T15:25:28;99567.56;;;19.10;33.81
59767;BME280;46248;58.364;25.582;2023-04-25T15:28:50;99558.47;;;19.20;33.34
59767;BME280;46248;58.364;25.582;2023-04-25T15:32:14;99550.94;;;19.34;33.34
59767;BME280;46248;58.364;25.582;2023-04-25T15:35:36;99553.81;;;19.49;33.34
59767;BME280;46248;58.364;25.582;2023-04-25T15:38:58;99543.06;;;19.58;32.93
59767;BME280;46248;58.364;25.582;2023-04-25T15:42:20;99546.44;;;19.68;33.31
59767;BME280;46248;58.364;25.582;2023-04-25T15:45:42;99547.31;;;19.77;32.37
59767;BME280;46248;58.364;25.582;2023-04-25T15:49:06;99547.81;;;19.81;33.16
59767;BME280;46248;58.364;25.582;2023-04-25T15:52:28;99543.31;;;19.81;32.69
59767;BME280;46248;58.364;25.582;2023-04-25T15:55:50;99543.00;;;19.84;32.52
59767;BME280;46248;58.364;25.582;2023-04-25T15:59:12;99543.31;;;19.81;32.54
59767;BME280;46248;58.364;25.582;2023-04-25T16:02:34;99536.53;;;19.87;32.68
59767;BME280;46248;58.364;25.582;2023-04-25T16:05:58;99539.75;;;20.07;32.08
59767;BME280;46248;58.364;25.582;2023-04-25T16:09:20;99552.56;;;20.28;32.09
59767;BME280;46248;58.364;25.582;2023-04-25T16:12:42;99561.53;;;20.51;31.78
59767;BME280;46248;58.364;25.582;2023-04-25T16:16:04;99566.22;;;20.49;31.71
59767;BME280;46248;58.364;25.582;2023-04-25T16:19:26;99554.56;;;20.34;31.92
59767;BME280;46248;58.364;25.582;2023-04-25T16:22:49;99563.84;;;20.30;32.18
59767;BME280;46248;58.364;25.582;2023-04-25T16:26:11;99568.34;;;20.21;33.01
59767;BME280;46248;58.364;25.582;2023-04-25T16:29:33;99559.69;;;20.19;32.83
59767;BME280;46248;58.364;25.582;2023-04-25T16:32:55;99552.72;;;20.10;33.34
59767;BME280;46248;58.364;25.582;2023-04-25T16:36:17;99561.59;;;19.84;33.41
59767;BME280;46248;58.364;25.582;2023-04-25T16:39:41;99557.19;;;19.59;32.77
59767;BME280;46248;58.364;25.582;2023-04-25T16:43:02;99554.97;;;19.54;33.08
59767;BME280;46248;58.364;25.582;2023-04-25T16:46:25;99559.28;;;19.47;33.40
59767;BME280;46248;58.364;25.582;2023-04-25T16:49:46;99561.38;;;19.35;33.59
59767;BME280;46248;58.364;25.582;2023-04-25T16:53:08;99559.66;;;19.26;33.37
59767;BME280;46248;58.364;25.582;2023-04-25T16:56:32;99560.25;;;19.12;33.57
59767;BME280;46248;58.364;25.582;2023-04-25T16:59:54;99562.28;;;18.92;33.91
59767;BME280;46248;58.364;25.582;2023-04-25T17:03:16;99561.63;;;18.72;34.43
59767;BME280;46248;58.364;25.582;2023-04-25T17:06:38;99565.28;;;18.53;34.75
59767;BME280;46248;58.364;25.582;2023-04-25T17:10:00;99569.06;;;18.33;35.03
59767;BME280;46248;58.364;25.582;2023-04-25T17:13:23;99568.22;;;18.14;35.22
59767;BME280;46248;58.364;25.582;2023-04-25T17:16:50;99553.38;;;17.85;35.82
59767;BME280;46248;58.364;25.582;2023-04-25T17:20:12;99572.78;;;17.76;36.14
59767;BME280;46248;58.364;25.582;2023-04-25T17:23:34;99562.97;;;17.59;36.24
59767;BME280;46248;58.364;25.582;2023-04-25T17:26:56;99569.19;;;17.40;36.63
59767;BME280;46248;58.364;25.582;2023-04-25T17:30:20;99571.47;;;17.25;37.07
59767;BME280;46248;58.364;25.582;2023-04-25T17:33:43;99579.69;;;17.12;37.40
59767;BME280;46248;58.364;25.582;2023-04-25T17:37:05;99571.69;;;16.94;37.76
59767;BME280;46248;58.364;25.582;2023-04-25T17:40:27;99570.31;;;16.81;37.90
59767;BME280;46248;58.364;25.582;2023-04-25T17:43:49;99573.34;;;16.66;38.26
59767;BME280;46248;58.364;25.582;2023-04-25T17:47:13;99566.81;;;16.51;38.49
59767;BME280;46248;58.364;25.582;2023-04-25T17:50:35;99565.44;;;16.37;38.70